Time;durP1;ratioP1;P1;durP2;ratioP2;P2;SDS_P1;SDS_P2;PMS_P1;PMS_P2;Temp;Humidity;BMP_temperature;BMP_pressure;BME280_temperature;BME280_humidity;BME280_pressure;Samples;Min_cycle;Max_cycle;Signal;HPM_P1;HPM_P2
2022/07/22 00:01:16;;;;;;;2.95;2.65;;;;;;;29.88;33.39;97009.34;4954425;28;20064;-26
2022/07/22 00:03:41;;;;;;;3.80;3.10;;;;;;;29.87;33.57;97008.50;4958031;28;20868;-32
2022/07/22 00:06:07;;;;;;;5.97;3.10;;;;;;;29.87;33.23;97008.50;4968626;28;20404;-32
2022/07/22 00:08:32;;;;;;;3.88;3.00;;;;;;;29.89;33.52;97017.16;4965052;28;20033;-27
2022/07/22 00:10:57;;;;;;;4.82;3.22;;;;;;;29.88;33.24;97015.47;4960647;28;20026;-29
2022/07/22 00:13:23;;;;;;;4.35;3.30;;;;;;;29.89;33.29;97011.88;4952250;28;20120;-27
2022/07/22 00:15:48;;;;;;;3.42;2.83;;;;;;;29.89;33.34;97009.22;4937571;28;23441;-26
2022/07/22 00:18:14;;;;;;;3.80;3.28;;;;;;;29.89;33.42;97011.88;4940282;28;20083;-28
2022/07/22 00:20:39;;;;;;;3.70;2.85;;;;;;;29.90;33.28;97008.28;4966364;28;22626;-28
2022/07/22 00:23:05;;;;;;;4.47;3.38;;;;;;;29.90;33.44;97010.91;4975331;28;20029;-31
2022/07/22 00:25:30;;;;;;;4.43;3.13;;;;;;;29.89;33.42;97005.72;4957748;28;20714;-26
2022/07/22 00:27:55;;;;;;;3.50;3.20;;;;;;;29.90;33.54;97016.19;4955695;28;20033;-25
2022/07/22 00:30:21;;;;;;;4.68;3.55;;;;;;;29.89;33.58;97011.88;4957260;28;20033;-26
2022/07/22 00:32:47;;;;;;;4.20;3.00;;;;;;;29.86;33.44;97004.16;4964238;28;20508;-27
2022/07/22 00:35:12;;;;;;;3.28;2.97;;;;;;;29.90;33.45;97008.28;4955947;28;20230;-25
2022/07/22 00:37:37;;;;;;;4.45;3.25;;;;;;;29.91;33.11;97004.72;4964211;28;20034;-26
2022/07/22 00:40:03;;;;;;;5.93;3.03;;;;;;;29.90;33.25;96999.53;4961793;28;20650;-28
2022/07/22 00:42:29;;;;;;;4.45;3.10;;;;;;;29.90;33.46;97008.28;4947278;28;20144;-31
2022/07/22 00:44:54;;;;;;;3.10;2.80;;;;;;;29.90;33.28;97003.00;4952972;28;20026;-26
2022/07/22 00:47:19;;;;;;;3.95;3.00;;;;;;;29.89;33.52;96996.03;4952111;28;20030;-28
2022/07/22 00:49:45;;;;;;;3.92;3.05;;;;;;;29.90;33.77;97002.16;4949712;28;20038;-27
2022/07/22 00:52:10;;;;;;;3.65;3.00;;;;;;;29.90;33.36;97000.34;4951825;28;20030;-31
2022/07/22 00:54:36;;;;;;;6.72;3.20;;;;;;;29.89;33.12;96998.66;4963126;28;20484;-29
2022/07/22 00:57:02;;;;;;;4.78;3.22;;;;;;;29.89;33.43;96996.03;4960789;28;20096;-27
2022/07/22 00:59:27;;;;;;;4.90;2.83;;;;;;;29.90;33.20;96988.97;4953335;28;20333;-26
2022/07/22 01:01:53;;;;;;;5.80;3.00;;;;;;;29.88;33.01;96993.47;4947049;28;20057;-25
2022/07/22 01:04:18;;;;;;;3.47;3.13;;;;;;;29.86;33.44;96990.94;4961583;28;20034;-29
2022/07/22 01:06:44;;;;;;;4.13;3.00;;;;;;;29.86;33.24;96990.94;4967305;28;20033;-26
2022/07/22 01:09:10;;;;;;;4.80;3.00;;;;;;;29.85;33.45;96990.09;4953506;28;20033;-25
2022/07/22 01:11:35;;;;;;;4.80;3.20;;;;;;;29.86;33.44;96985.66;4956047;28;20025;-25
2022/07/22 01:14:00;;;;;;;4.38;2.90;;;;;;;29.76;33.30;96974.88;4949517;28;22364;-29
2022/07/22 01:16:26;;;;;;;3.83;3.10;;;;;;;29.85;33.13;96994.53;4957572;28;20029;-29
2022/07/22 01:18:51;;;;;;;6.10;3.20;;;;;;;29.85;33.45;96983.97;4954864;28;20103;-28
2022/07/22 01:21:17;;;;;;;3.40;3.08;;;;;;;29.84;33.16;96980.50;4955214;28;20034;-27
2022/07/22 01:23:42;;;;;;;3.88;2.85;;;;;;;29.84;33.11;96987.56;4947540;28;20037;-26
2022/07/22 01:26:08;;;;;;;4.05;3.10;;;;;;;29.80;33.14;96980.78;4949297;28;20057;-32
2022/07/22 01:28:33;;;;;;;4.00;3.00;;;;;;;29.84;33.38;96988.44;4955822;28;20037;-26
2022/07/22 01:30:59;;;;;;;5.80;3.10;;;;;;;29.83;33.45;96985.88;4953012;28;20480;-26
2022/07/22 01:33:24;;;;;;;3.80;2.97;;;;;;;29.84;33.05;96979.63;4952215;28;20349;-26
2022/07/22 01:35:51;;;;;;;3.78;3.00;;;;;;;29.83;33.37;96983.25;4952878;28;20025;-26
2022/07/22 01:38:16;;;;;;;5.50;3.10;;;;;;;29.77;33.35;96981.00;4955951;28;20720;-29
2022/07/22 01:40:42;;;;;;;7.80;3.10;;;;;;;29.82;33.23;96981.53;4955477;28;20045;-30
2022/07/22 01:43:07;;;;;;;4.68;3.40;;;;;;;29.82;33.43;96982.38;4954690;28;21137;-25
2022/07/22 01:45:33;;;;;;;6.57;2.92;;;;;;;29.81;33.40;96987.75;4951575;28;20018;-30
2022/07/22 01:47:58;;;;;;;3.78;3.28;;;;;;;29.81;33.06;96971.91;4949201;28;20815;-25
2022/07/22 01:50:24;;;;;;;7.03;3.10;;;;;;;29.82;33.00;96984.16;4945658;28;20087;-26
2022/07/22 01:52:49;;;;;;;4.72;3.17;;;;;;;29.81;33.04;96971.91;4949894;28;20042;-26
2022/07/22 01:55:15;;;;;;;4.32;3.30;;;;;;;29.82;32.93;96982.38;4951083;28;20041;-28
2022/07/22 01:57:40;;;;;;;3.45;3.10;;;;;;;29.82;33.25;96971.81;4954206;28;20115;-30
2022/07/22 02:00:07;;;;;;;4.47;3.10;;;;;;;29.82;33.34;96976.25;4948678;28;20731;-26
2022/07/22 02:02:33;;;;;;;6.97;3.17;;;;;;;29.81;33.00;96972.78;4947754;28;20033;-26
2022/07/22 02:04:58;;;;;;;4.32;3.13;;;;;;;29.80;33.42;96975.50;4941097;28;20131;-25
2022/07/22 02:07:25;;;;;;;3.42;3.10;;;;;;;29.80;33.15;96983.44;4946894;28;20048;-24
2022/07/22 02:09:51;;;;;;;4.05;3.05;;;;;;;29.79;33.14;96979.94;4946883;28;20586;-28
2022/07/22 02:12:16;;;;;;;6.13;3.08;;;;;;;29.79;33.27;96973.81;4947854;28;20029;-28
2022/07/22 02:14:42;;;;;;;6.05;3.10;;;;;;;29.80;33.24;96976.38;4941400;28;20050;-24
2022/07/22 02:17:07;;;;;;;10.25;3.28;;;;;;;29.80;33.31;96981.66;4947779;28;21355;-26
2022/07/22 02:19:33;;;;;;;4.30;3.60;;;;;;;29.78;33.31;96974.78;4926467;28;20048;-28
2022/07/22 02:21:58;;;;;;;5.65;3.30;;;;;;;29.80;33.09;96978.16;4926204;28;20499;-27
2022/07/22 02:24:23;;;;;;;5.22;3.20;;;;;;;29.79;33.39;96968.53;4929307;28;20038;-26
2022/07/22 02:26:49;;;;;;;4.40;2.92;;;;;;;29.78;33.33;96967.69;4929971;28;20087;-28
2022/07/22 02:29:14;;;;;;;5.15;3.38;;;;;;;29.79;33.30;96968.53;4922740;28;20586;-26
2022/07/22 02:31:40;;;;;;;3.35;2.90;;;;;;;29.79;33.31;96968.53;4920313;28;20037;-26
2022/07/22 02:34:05;;;;;;;3.90;3.10;;;;;;;29.79;33.20;96965.91;4922443;28;20041;-28
2022/07/22 02:36:30;;;;;;;4.15;3.10;;;;;;;29.75;33.22;96959.97;4937916;28;21604;-29
2022/07/22 02:38:56;;;;;;;6.07;3.10;;;;;;;29.79;32.93;96963.25;4919042;28;20052;-26
2022/07/22 02:41:21;;;;;;;4.28;3.05;;;;;;;29.80;33.00;96954.38;4928599;28;20197;-26
2022/07/22 02:43:47;;;;;;;4.40;3.10;;;;;;;29.79;32.93;96960.63;4935405;28;20665;-27
2022/07/22 02:46:12;;;;;;;3.88;3.13;;;;;;;29.79;33.17;96963.25;4924197;28;20048;-26
2022/07/22 02:48:37;;;;;;;4.97;3.17;;;;;;;29.80;33.11;96960.53;4926273;28;20060;-25
2022/07/22 02:51:03;;;;;;;5.75;3.20;;;;;;;29.81;32.93;96961.34;4925705;28;20052;-36
2022/07/22 02:53:28;;;;;;;3.78;3.15;;;;;;;29.80;32.89;96957.03;4923211;28;21072;-27
2022/07/22 02:55:54;;;;;;;4.00;2.92;;;;;;;29.79;32.83;96958.81;4935760;28;20068;-25
2022/07/22 02:58:19;;;;;;;6.97;3.53;;;;;;;29.78;33.10;96957.13;4923443;28;20948;-27
2022/07/22 03:00:45;;;;;;;3.70;3.15;;;;;;;29.78;33.11;96969.50;4925981;28;21162;-26
2022/07/22 03:03:10;;;;;;;4.47;3.63;;;;;;;29.77;33.00;96963.34;4929559;28;20218;-26
2022/07/22 03:05:35;;;;;;;5.05;3.20;;;;;;;29.77;32.81;96967.78;4928459;28;20068;-25
2022/07/22 03:08:01;;;;;;;5.45;3.30;;;;;;;29.76;33.11;96968.75;4926770;28;20052;-28
2022/07/22 03:10:26;;;;;;;4.80;3.15;;;;;;;29.76;32.84;96968.75;4931692;28;21091;-27
2022/07/22 03:12:52;;;;;;;4.93;3.40;;;;;;;29.75;33.07;96965.25;4923619;28;20082;-27
2022/07/22 03:15:17;;;;;;;4.75;3.03;;;;;;;29.76;32.80;96966.09;4920630;28;20036;-27
2022/07/22 03:17:42;;;;;;;5.18;3.22;;;;;;;29.76;32.90;96966.09;4924999;28;20837;-31
2022/07/22 03:20:09;;;;;;;5.00;3.30;;;;;;;29.75;32.82;96961.78;4927384;28;20041;-29
2022/07/22 03:22:34;;;;;;;6.28;3.20;;;;;;;29.75;33.14;96969.69;4926341;28;20131;-26
2022/07/22 03:25:00;;;;;;;5.35;3.25;;;;;;;29.75;32.88;96961.78;4930727;28;20026;-25
2022/07/22 03:27:25;;;;;;;4.55;3.42;;;;;;;29.76;32.89;96963.47;4937799;28;20455;-27
2022/07/22 03:29:51;;;;;;;5.75;3.30;;;;;;;29.76;32.67;96974.03;4936693;28;21015;-27
2022/07/22 03:32:16;;;;;;;7.05;3.30;;;;;;;29.76;32.89;96963.47;4935135;28;22536;-28
2022/07/22 03:34:41;;;;;;;4.00;3.33;;;;;;;29.77;32.70;96975.72;4936889;28;20034;-29
2022/07/22 03:37:07;;;;;;;5.65;3.30;;;;;;;29.77;32.86;96971.28;4932450;28;20040;-29
2022/07/22 03:39:32;;;;;;;3.50;3.20;;;;;;;29.78;32.66;96972.97;4929662;28;22369;-26
2022/07/22 03:41:57;;;;;;;6.40;3.38;;;;;;;29.79;32.71;96973.81;4926095;28;20124;-24
2022/07/22 03:44:23;;;;;;;3.92;3.35;;;;;;;29.78;32.85;96970.31;4936139;28;20033;-27
2022/07/22 03:46:49;;;;;;;3.90;3.42;;;;;;;29.78;32.78;96967.69;4923208;28;20061;-31
2022/07/22 03:49:14;;;;;;;4.85;3.60;;;;;;;29.78;32.57;96967.69;4922954;28;20213;-32
2022/07/22 03:51:39;;;;;;;4.72;3.60;;;;;;;29.78;32.88;96959.75;4926149;28;20038;-26
2022/07/22 03:54:05;;;;;;;4.85;3.45;;;;;;;29.78;32.76;96964.22;4921918;28;20033;-34
2022/07/22 03:56:31;;;;;;;5.47;3.65;;;;;;;29.78;32.69;96962.41;4921765;28;23104;-28
2022/07/22 03:58:56;;;;;;;8.55;3.83;;;;;;;29.78;32.50;96964.22;4923485;28;20277;-28
2022/07/22 04:01:21;;;;;;;4.85;3.78;;;;;;;29.77;32.80;96965.16;4920905;28;20034;-31
2022/07/22 04:03:48;;;;;;;5.82;3.70;;;;;;;29.77;32.88;96971.28;4922765;28;22306;-27
2022/07/22 04:06:14;;;;;;;4.78;3.47;;;;;;;29.77;32.82;96962.50;4917441;28;20769;-33
2022/07/22 04:08:39;;;;;;;4.00;3.60;;;;;;;29.76;32.86;96966.09;4927204;28;20034;-25
2022/07/22 04:11:05;;;;;;;7.13;3.50;;;;;;;29.75;32.57;96974.97;4921887;28;20117;-28
2022/07/22 04:13:30;;;;;;;4.13;3.42;;;;;;;29.75;32.60;96965.25;4930562;28;20119;-26
2022/07/22 04:15:56;;;;;;;3.50;3.20;;;;;;;29.75;32.56;96973.16;4932171;28;20701;-25
2022/07/22 04:18:21;;;;;;;4.03;3.40;;;;;;;29.75;32.67;96969.69;4928735;28;20037;-31
2022/07/22 04:20:46;;;;;;;4.75;3.70;;;;;;;29.75;32.65;96970.53;4926451;28;21188;-26
2022/07/22 04:23:12;;;;;;;4.47;3.75;;;;;;;29.73;32.70;96962.72;4923112;28;20033;-30
2022/07/22 04:25:37;;;;;;;4.25;3.80;;;;;;;29.73;32.53;96960.09;4926343;28;20207;-29
2022/07/22 04:28:03;;;;;;;6.50;4.30;;;;;;;29.76;32.47;96955.53;4940963;28;20038;-31
2022/07/22 04:30:28;;;;;;;5.43;4.20;;;;;;;29.75;32.79;96953.84;4943948;28;20022;-29
2022/07/22 04:32:54;;;;;;;5.22;4.05;;;;;;;29.73;32.71;96949.53;4940303;28;20532;-34
2022/07/22 04:35:19;;;;;;;3.97;3.40;;;;;;;29.74;32.53;96953.00;4943738;28;20088;-34
2022/07/22 04:37:44;;;;;;;4.40;3.83;;;;;;;29.74;32.58;96953.00;4950115;28;20056;-32
2022/07/22 04:40:11;;;;;;;6.30;3.85;;;;;;;29.73;32.60;96953.94;4943616;28;20030;-28
2022/07/22 04:42:36;;;;;;;5.43;4.00;;;;;;;29.72;32.77;96947.81;4950234;28;20045;-25
2022/07/22 04:45:02;;;;;;;5.00;3.78;;;;;;;29.72;32.94;96947.81;4953303;28;20138;-36
2022/07/22 04:47:28;;;;;;;5.65;3.53;;;;;;;29.71;32.92;96946.13;4955601;28;20034;-25
2022/07/22 04:49:53;;;;;;;5.47;3.70;;;;;;;29.72;32.93;96953.09;4951773;28;20160;-31
2022/07/22 04:52:19;;;;;;;5.13;3.60;;;;;;;29.71;32.67;96956.69;4959853;28;20896;-27
2022/07/22 04:54:44;;;;;;;5.63;3.80;;;;;;;29.71;32.67;96956.69;4961602;28;20038;-28
2022/07/22 04:57:09;;;;;;;8.73;4.07;;;;;;;29.71;32.67;96950.56;4951860;28;20033;-25
2022/07/22 04:59:35;;;;;;;5.43;3.70;;;;;;;29.71;32.71;96953.22;4944860;28;20096;-26
2022/07/22 05:02:00;;;;;;;6.35;4.00;;;;;;;29.71;33.01;96948.75;4945282;28;20301;-28
2022/07/22 05:04:26;;;;;;;6.65;4.20;;;;;;;29.69;32.98;96948.03;4945188;28;22908;-30
2022/07/22 05:06:51;;;;;;;7.05;4.13;;;;;;;29.69;33.11;96947.19;4943531;28;20354;-26
2022/07/22 05:09:16;;;;;;;7.53;4.10;;;;;;;29.69;33.06;96950.69;4939130;28;20034;-24
2022/07/22 05:11:42;;;;;;;4.68;4.00;;;;;;;29.69;32.88;96950.69;4952152;28;20041;-28
2022/07/22 05:14:07;;;;;;;6.30;4.20;;;;;;;29.70;32.86;96949.72;4951124;28;21326;-27
2022/07/22 05:16:36;;;;;;;11.50;4.50;;;;;;;29.69;33.18;96942.75;4948048;28;20108;-31
2022/07/22 05:19:02;;;;;;;6.60;4.50;;;;;;;29.67;33.16;96944.63;4946062;28;20018;-28
2022/07/22 05:21:27;;;;;;;11.23;5.50;;;;;;;29.64;33.00;96939.56;4944832;28;21333;-26
2022/07/22 05:23:53;;;;;;;9.82;5.60;;;;;;;29.63;33.22;96943.16;4945813;28;20037;-25
2022/07/22 05:26:18;;;;;;;10.20;5.35;;;;;;;29.60;33.10;96941.56;4950656;28;20026;-27
2022/07/22 05:28:43;;;;;;;8.30;6.15;;;;;;;29.58;33.19;96948.75;4954625;28;20694;-26
2022/07/22 05:31:09;;;;;;;9.70;5.53;;;;;;;29.56;33.62;96948.00;4950149;28;20421;-28
2022/07/22 05:33:34;;;;;;;9.70;5.68;;;;;;;29.52;33.37;96946.50;4954394;28;20104;-32
2022/07/22 05:36:00;;;;;;;8.93;5.65;;;;;;;29.48;33.48;96940.56;4946209;28;20041;-26
2022/07/22 05:38:25;;;;;;;11.10;6.03;;;;;;;29.44;33.77;96944.34;4948680;28;20117;-25
2022/07/22 05:40:51;;;;;;;9.88;5.82;;;;;;;29.39;33.80;96940.31;4945228;28;20648;-28
2022/07/22 05:43:16;;;;;;;11.52;6.18;;;;;;;29.35;33.82;96947.59;4946250;28;20233;-25
2022/07/22 05:45:41;;;;;;;21.25;6.60;;;;;;;29.31;34.00;96946.09;4944983;28;22521;-25
2022/07/22 05:48:07;;;;;;;13.85;6.57;;;;;;;29.27;34.26;96947.25;4943564;28;20486;-26
2022/07/22 05:50:32;;;;;;;21.08;6.15;;;;;;;29.21;34.19;96946.69;4941331;28;20148;-31
2022/07/22 05:52:58;;;;;;;15.57;6.82;;;;;;;29.18;34.52;96943.41;4947122;28;20491;-27
2022/07/22 05:55:23;;;;;;;19.05;6.75;;;;;;;29.13;34.62;96946.34;4944078;28;20049;-28
2022/07/22 05:57:48;;;;;;;13.80;6.18;;;;;;;29.10;34.74;96941.25;4944831;28;20140;-27
2022/07/22 06:00:14;;;;;;;16.13;6.85;;;;;;;29.01;34.78;96941.84;4936193;28;20030;-27
2022/07/22 06:02:40;;;;;;;13.50;6.15;;;;;;;29.04;34.86;96949.59;4939079;28;20033;-26
2022/07/22 06:05:05;;;;;;;16.15;6.60;;;;;;;29.03;35.00;96945.25;4941158;28;20099;-26
2022/07/22 06:07:31;;;;;;;14.48;6.38;;;;;;;29.04;35.10;96946.94;4950637;28;20064;-25
2022/07/22 06:09:56;;;;;;;12.30;6.05;;;;;;;29.04;35.08;96946.94;4950455;28;20029;-24
2022/07/22 06:12:22;;;;;;;14.63;6.45;;;;;;;29.03;35.10;96950.53;4950498;28;20117;-25
2022/07/22 06:14:47;;;;;;;12.20;6.18;;;;;;;29.02;35.24;96943.56;4949566;28;20045;-29
2022/07/22 06:17:13;;;;;;;8.35;6.03;;;;;;;29.01;35.11;96947.13;4948964;28;20100;-27
2022/07/22 06:19:39;;;;;;;10.45;6.47;;;;;;;28.96;35.23;96942.16;4947821;28;20029;-27
2022/07/22 06:22:04;;;;;;;9.18;6.38;;;;;;;28.94;35.27;96946.69;4953007;28;20059;-26
2022/07/22 06:24:29;;;;;;;9.38;6.20;;;;;;;28.91;35.50;96938.97;4942519;28;20088;-27
2022/07/22 06:26:55;;;;;;;9.23;6.47;;;;;;;28.90;35.47;96943.41;4948558;28;20088;-26
2022/07/22 06:29:20;;;;;;;11.00;6.32;;;;;;;28.89;35.65;96943.47;4954414;28;20026;-25
2022/07/22 06:31:46;;;;;;;12.50;6.50;;;;;;;28.86;35.34;96947.13;4946529;28;20083;-27
2022/07/22 06:34:11;;;;;;;9.20;6.65;;;;;;;28.87;35.42;96948.00;4952778;28;20030;-30
2022/07/22 06:36:36;;;;;;;8.23;6.10;;;;;;;28.84;35.42;96951.69;4948115;28;20913;-26
2022/07/22 06:39:02;;;;;;;11.82;6.13;;;;;;;28.83;35.71;96944.69;4945979;28;20029;-29
2022/07/22 06:41:27;;;;;;;9.00;6.57;;;;;;;28.80;35.72;96950.19;4944817;28;20663;-27
2022/07/22 06:43:53;;;;;;;20.77;7.25;;;;;;;28.77;35.88;96945.94;4954612;28;20032;-29
2022/07/22 06:46:18;;;;;;;16.30;6.65;;;;;;;28.73;35.88;96949.72;4948126;28;20044;-29
2022/07/22 06:48:43;;;;;;;16.65;7.00;;;;;;;28.68;36.13;96941.25;4951326;28;20048;-26
2022/07/22 06:51:09;;;;;;;20.15;7.57;;;;;;;28.68;35.96;96942.09;4955838;28;20183;-27
2022/07/22 06:53:34;;;;;;;14.68;6.95;;;;;;;28.65;35.92;96947.53;4963306;28;20104;-25
2022/07/22 06:56:00;;;;;;;10.50;6.60;;;;;;;28.63;36.18;96946.81;4954852;28;20871;-24
2022/07/22 06:58:25;;;;;;;9.18;6.00;;;;;;;28.64;36.18;96937.94;4952050;28;20046;-26
2022/07/22 07:00:50;;;;;;;11.60;6.30;;;;;;;28.64;36.34;96937.94;4953218;28;20286;-26
2022/07/22 07:03:16;;;;;;;12.75;6.68;;;;;;;28.66;36.04;96941.34;4958590;28;20068;-26
2022/07/22 07:05:41;;;;;;;16.02;6.80;;;;;;;28.68;36.31;96936.81;4960267;28;20076;-29
2022/07/22 07:08:07;;;;;;;9.35;6.20;;;;;;;28.69;36.25;96938.50;4959016;28;20029;-28
2022/07/22 07:10:32;;;;;;;10.55;6.40;;;;;;;28.71;36.50;96940.22;4952134;28;20686;-28
2022/07/22 07:12:58;;;;;;;10.55;5.90;;;;;;;28.69;36.09;96930.59;4950528;28;20036;-30
2022/07/22 07:15:24;;;;;;;9.15;6.10;;;;;;;28.71;36.20;96924.38;4952464;28;20095;-26
2022/07/22 07:17:49;;;;;;;10.20;6.05;;;;;;;28.72;36.38;96920.81;4955264;28;20038;-31
2022/07/22 07:20:15;;;;;;;20.55;6.18;;;;;;;28.73;36.38;96917.22;4957262;28;20088;-25
2022/07/22 07:22:40;;;;;;;7.78;5.85;;;;;;;28.72;36.08;96911.09;4971057;28;20571;-26
2022/07/22 07:25:07;;;;;;;11.93;5.45;;;;;;;28.80;36.09;96913.25;4968005;28;20037;-24
2022/07/22 07:27:32;;;;;;;10.77;5.20;;;;;;;28.83;36.13;96907.75;4959987;28;20057;-29
2022/07/22 07:29:58;;;;;;;10.60;5.30;;;;;;;28.86;35.99;96907.56;4959859;28;20115;-30
2022/07/22 07:32:23;;;;;;;10.50;4.95;;;;;;;28.89;35.82;96906.53;4960389;28;20888;-25
2022/07/22 07:34:48;;;;;;;7.78;5.20;;;;;;;28.93;35.90;96898.38;4953571;28;20042;-31
2022/07/22 07:37:14;;;;;;;13.38;5.18;;;;;;;28.97;35.49;96898.16;4956178;28;20033;-24
2022/07/22 07:39:39;;;;;;;8.43;4.90;;;;;;;29.00;35.46;96895.31;4954473;28;20807;-27
2022/07/22 07:42:05;;;;;;;9.80;4.75;;;;;;;29.05;35.48;96901.13;4955836;28;20042;-27
2022/07/22 07:44:30;;;;;;;11.88;4.72;;;;;;;29.07;35.43;96899.25;4956815;28;20872;-29
2022/07/22 07:46:56;;;;;;;8.88;4.50;;;;;;;29.12;35.49;96902.44;4953386;28;20661;-26
2022/07/22 07:49:21;;;;;;;7.22;4.63;;;;;;;29.13;35.33;96904.13;4961502;28;20143;-32
2022/07/22 07:51:46;;;;;;;11.57;5.30;;;;;;;29.16;35.52;96901.28;4955550;28;20026;-27
2022/07/22 07:54:12;;;;;;;7.68;4.35;;;;;;;29.20;35.45;96900.16;4952826;28;20806;-27
2022/07/22 07:56:37;;;;;;;9.95;4.97;;;;;;;29.22;35.14;96897.41;4950910;28;21219;-28
2022/07/22 07:59:03;;;;;;;7.20;4.57;;;;;;;29.20;35.15;96900.16;4953204;28;20704;-34
2022/07/22 08:01:28;;;;;;;6.43;4.47;;;;;;;29.27;35.03;96902.38;4954422;28;20030;-30
2022/07/22 08:03:53;;;;;;;5.28;4.25;;;;;;;29.30;35.11;96894.25;4952060;28;20049;-30
2022/07/22 08:06:19;;;;;;;6.43;4.65;;;;;;;29.30;35.38;96899.53;4948585;28;21699;-31
2022/07/22 08:08:44;;;;;;;10.73;4.68;;;;;;;29.33;35.25;96899.34;4950416;28;20095;-33
2022/07/22 08:11:10;;;;;;;8.30;4.28;;;;;;;29.35;35.10;96897.44;4953487;28;20037;-29
2022/07/22 08:13:35;;;;;;;9.00;4.38;;;;;;;29.36;34.83;96893.84;4958089;28;20072;-26
2022/07/22 08:16:01;;;;;;;7.57;4.90;;;;;;;29.38;34.93;96886.69;4957883;28;20500;-34
2022/07/22 08:18:28;;;;;;;8.82;4.70;;;;;;;29.41;35.02;96883.00;4959341;28;20044;-29
2022/07/22 08:20:53;;;;;;;8.82;4.75;;;;;;;29.42;34.79;96888.16;4968988;28;20097;-32
2022/07/22 08:23:19;;;;;;;6.30;4.47;;;;;;;29.43;35.05;96889.84;4959554;28;20033;-27
2022/07/22 08:25:44;;;;;;;8.75;4.55;;;;;;;29.45;34.70;96882.66;4960048;28;20034;-27
2022/07/22 08:28:10;;;;;;;10.68;4.72;;;;;;;29.45;34.77;96880.03;4959402;28;20100;-27
2022/07/22 08:30:36;;;;;;;10.13;4.43;;;;;;;29.46;34.58;96876.47;4957767;28;20030;-25
2022/07/22 08:33:01;;;;;;;7.22;4.38;;;;;;;29.49;34.69;96880.69;4958291;28;20145;-25
2022/07/22 08:35:26;;;;;;;9.48;4.38;;;;;;;29.51;34.83;96881.44;4958980;28;20038;-28
2022/07/22 08:37:52;;;;;;;5.47;4.35;;;;;;;29.52;34.70;96874.38;4964066;28;20691;-29
2022/07/22 08:40:17;;;;;;;8.63;4.03;;;;;;;29.53;34.66;96868.16;4959081;28;20048;-28
2022/07/22 08:42:44;;;;;;;7.35;4.53;;;;;;;29.54;34.75;96867.19;4960347;28;20123;-28
2022/07/22 08:45:09;;;;;;;5.70;4.32;;;;;;;29.55;34.88;96871.50;4960166;28;20113;-29
2022/07/22 08:47:35;;;;;;;8.02;3.95;;;;;;;29.57;34.55;96864.34;4956742;28;20050;-26
2022/07/22 08:50:01;;;;;;;6.68;4.30;;;;;;;29.57;34.91;96864.34;4958441;28;20026;-28
2022/07/22 08:52:26;;;;;;;5.07;3.67;;;;;;;29.59;34.79;96851.88;4962323;28;20132;-31
2022/07/22 08:54:51;;;;;;;6.28;3.80;;;;;;;29.60;34.56;96851.78;4965678;28;20038;-24
2022/07/22 08:57:17;;;;;;;5.43;3.85;;;;;;;29.62;34.54;96861.38;4961317;28;20111;-28
2022/07/22 08:59:53;;;;;;;5.57;3.88;;;;;;;29.63;34.76;96860.44;4964419;28;20033;-30
2022/07/22 09:02:19;;;;;;;5.03;3.80;;;;;;;29.63;34.61;96863.91;4957174;28;20084;-25
2022/07/22 09:04:53;;;;;;;4.65;3.65;;;;;;;29.65;34.56;96856.75;4960124;28;20049;-33
2022/07/22 09:07:28;;;;;;;4.50;3.60;;;;;;;29.64;34.79;96868.28;4962946;28;20751;-29
2022/07/22 09:09:53;;;;;;;7.80;3.78;;;;;;;29.64;34.46;96854.22;4960858;28;20128;-27
2022/07/22 09:12:19;;;;;;;4.70;3.80;;;;;;;29.65;34.68;96851.47;4967187;28;20727;-29
2022/07/22 09:14:50;;;;;;;4.57;3.75;;;;;;;29.68;34.44;96856.53;4961730;28;20843;-30
2022/07/22 09:17:42;;;;;;;5.07;3.42;;;;;;;29.68;34.42;96856.53;4958987;28;20026;-31
2022/07/22 09:20:26;;;;;;;5.20;3.88;;;;;;;29.69;34.55;96855.59;4957093;28;20042;-26
2022/07/22 09:22:51;;;;;;;5.90;3.67;;;;;;;29.70;34.33;96853.78;4958207;28;20034;-33
2022/07/22 09:25:29;;;;;;;5.50;3.80;;;;;;;29.71;34.41;96856.31;4960627;28;20045;-29
2022/07/22 09:28:07;;;;;;;5.47;3.63;;;;;;;29.73;34.39;96859.72;4963089;28;20034;-28
2022/07/22 09:30:34;;;;;;;3.92;3.50;;;;;;;29.73;34.65;96854.44;4966331;28;20041;-26
2022/07/22 09:32:59;;;;;;;5.13;3.80;;;;;;;29.75;34.34;96856.13;4956114;28;20168;-27
2022/07/22 09:35:25;;;;;;;4.57;3.47;;;;;;;29.75;34.39;96851.66;4959917;28;20026;-27
2022/07/22 09:37:58;;;;;;;4.22;3.35;;;;;;;29.75;34.39;96848.19;4962243;28;20281;-30
2022/07/22 09:40:25;;;;;;;5.72;3.65;;;;;;;29.77;34.60;96843.63;4966208;28;20036;-30
2022/07/22 09:42:51;;;;;;;3.58;3.28;;;;;;;29.77;34.53;96841.00;4959070;28;20117;-32
2022/07/22 09:45:17;;;;;;;5.10;3.50;;;;;;;29.78;34.42;96838.25;4960159;28;20283;-27
2022/07/22 09:47:43;;;;;;;3.95;3.38;;;;;;;29.80;34.64;96838.16;4959302;28;20252;-29
2022/07/22 09:50:20;;;;;;;4.85;3.60;;;;;;;29.79;34.64;96837.31;4961106;28;20072;-34
2022/07/22 09:52:45;;;;;;;4.40;3.33;;;;;;;29.81;34.25;96829.28;4959161;28;20029;-27
2022/07/22 09:55:12;;;;;;;4.22;3.25;;;;;;;29.80;34.61;96827.59;4961800;28;20040;-26
2022/07/22 09:57:37;;;;;;;3.60;3.20;;;;;;;29.83;34.47;96832.66;4940586;28;20119;-27
2022/07/22 10:00:06;;;;;;;4.13;3.13;;;;;;;29.82;34.19;96820.38;4960390;28;20038;-29
2022/07/22 10:02:31;;;;;;;4.05;3.30;;;;;;;29.84;34.41;96818.50;4956158;28;20029;-29
2022/07/22 10:04:56;;;;;;;4.47;3.53;;;;;;;29.83;34.23;96815.00;4960164;28;20845;-33
2022/07/22 10:07:23;;;;;;;4.53;3.10;;;;;;;29.83;34.55;96804.44;4941609;28;20022;-28
2022/07/22 10:09:48;;;;;;;4.30;3.15;;;;;;;29.86;34.50;96806.03;4948200;28;20026;-28
2022/07/22 10:12:13;;;;;;;4.85;3.55;;;;;;;29.85;34.24;96804.34;4956739;28;20586;-29
2022/07/22 10:14:39;;;;;;;4.00;2.97;;;;;;;29.87;34.62;96807.72;4952614;28;20034;-28
2022/07/22 10:17:04;;;;;;;4.97;3.28;;;;;;;29.87;34.59;96802.44;4957636;28;20092;-29
2022/07/22 10:19:30;;;;;;;3.90;2.90;;;;;;;29.87;34.36;96797.16;4963464;28;20441;-31
2022/07/22 10:21:55;;;;;;;3.38;2.80;;;;;;;29.89;34.48;96797.03;4959133;28;21024;-27
2022/07/22 10:24:23;;;;;;;3.70;2.95;;;;;;;29.90;34.40;96794.28;4960600;28;20050;-28
2022/07/22 10:26:56;;;;;;;3.08;2.78;;;;;;;29.90;34.55;96793.47;4955245;28;20034;-33
2022/07/22 10:29:46;;;;;;;2.97;2.70;;;;;;;29.91;34.33;96795.16;4962249;28;20054;-31
2022/07/22 10:32:17;;;;;;;3.92;2.70;;;;;;;29.92;34.22;96791.53;4951646;28;20033;-32
2022/07/22 10:34:58;;;;;;;3.38;2.90;;;;;;;29.91;34.29;96780.16;4955214;28;20042;-28
2022/07/22 10:37:40;;;;;;;3.38;2.80;;;;;;;29.93;34.23;96774.72;4958426;28;20909;-27
2022/07/22 10:40:12;;;;;;;4.07;2.90;;;;;;;29.93;34.10;96775.59;4953423;28;20041;-33
2022/07/22 10:42:56;;;;;;;4.10;3.00;;;;;;;29.93;34.43;96769.44;4950098;28;20030;-28
2022/07/22 10:45:23;;;;;;;3.58;3.03;;;;;;;29.94;34.49;96781.72;4953208;28;20038;-28
2022/07/22 10:47:56;;;;;;;3.33;2.60;;;;;;;29.94;34.52;96779.91;4960869;28;20030;-30
2022/07/22 10:50:42;;;;;;;3.95;2.97;;;;;;;29.95;34.20;96771.03;4961650;28;20131;-31
2022/07/22 10:53:25;;;;;;;3.63;2.75;;;;;;;29.96;34.42;96780.66;4960809;28;20061;-24
2022/07/22 10:56:00;;;;;;;3.55;2.90;;;;;;;29.96;34.41;96763.97;4963167;28;20026;-29
2022/07/22 10:58:32;;;;;;;3.10;2.80;;;;;;;29.97;34.48;96769.13;4960469;28;20866;-28
2022/07/22 11:01:04;;;;;;;2.83;2.42;;;;;;;29.97;34.43;96758.56;4952308;28;20184;-32
2022/07/22 11:03:30;;;;;;;3.70;2.70;;;;;;;29.99;34.22;96759.28;4958040;28;20121;-30
2022/07/22 11:05:56;;;;;;;3.28;2.75;;;;;;;29.99;34.20;96754.00;4960162;28;20056;-28
2022/07/22 11:08:22;;;;;;;5.35;2.72;;;;;;;30.01;34.26;96755.72;4952111;28;20595;-31
2022/07/22 11:10:48;;;;;;;3.28;2.72;;;;;;;30.01;34.46;96745.97;4957464;28;20045;-34
2022/07/22 11:13:30;;;;;;;3.00;2.53;;;;;;;30.02;34.54;96746.81;4952115;28;22661;-31
2022/07/22 11:16:18;;;;;;;3.17;2.50;;;;;;;30.02;34.29;96758.25;4958883;28;20172;-30
2022/07/22 11:18:57;;;;;;;3.15;2.60;;;;;;;30.04;34.44;96750.19;4962202;28;20666;-28
2022/07/22 11:21:24;;;;;;;3.25;2.58;;;;;;;30.05;34.38;96742.16;4958306;28;20056;-28
2022/07/22 11:23:51;;;;;;;2.78;2.55;;;;;;;30.04;34.51;96742.25;4957721;28;20092;-29
2022/07/22 11:26:20;;;;;;;3.15;2.40;;;;;;;30.04;34.49;96736.97;4960001;28;20014;-30
2022/07/22 11:28:45;;;;;;;2.65;2.42;;;;;;;30.05;34.18;96743.97;4962578;28;20858;-27